sensor_id;sensor_type;location;lat;lon;timestamp;temperature;humidity
22562;DHT22;11447;50.562;8.504;2023-05-28T00:00:04;15.40;62.30
22562;DHT22;11447;50.562;8.504;2023-05-28T00:02:35;15.30;62.70
22562;DHT22;11447;50.562;8.504;2023-05-28T00:05:02;15.10;62.90
22562;DHT22;11447;50.562;8.504;2023-05-28T00:07:32;15.20;62.90
22562;DHT22;11447;50.562;8.504;2023-05-28T00:09:58;15.20;62.50
22562;DHT22;11447;50.562;8.504;2023-05-28T00:12:25;15.10;63.60
22562;DHT22;11447;50.562;8.504;2023-05-28T00:14:52;15.10;63.50
22562;DHT22;11447;50.562;8.504;2023-05-28T00:17:21;14.90;63.50
22562;DHT22;11447;50.562;8.504;2023-05-28T00:19:48;15.00;63.90
22562;DHT22;11447;50.562;8.504;2023-05-28T00:22:15;15.00;64.10
22562;DHT22;11447;50.562;8.504;2023-05-28T00:24:42;14.80;64.40
22562;DHT22;11447;50.562;8.504;2023-05-28T00:27:09;14.80;64.50
22562;DHT22;11447;50.562;8.504;2023-05-28T00:29:35;14.80;64.30
22562;DHT22;11447;50.562;8.504;2023-05-28T00:32:02;14.60;64.60
22562;DHT22;11447;50.562;8.504;2023-05-28T00:34:31;14.60;65.00
22562;DHT22;11447;50.562;8.504;2023-05-28T00:37:00;14.60;65.10
22562;DHT22;11447;50.562;8.504;2023-05-28T00:39:27;14.60;65.30
22562;DHT22;11447;50.562;8.504;2023-05-28T00:42:00;14.50;65.50
22562;DHT22;11447;50.562;8.504;2023-05-28T00:44:30;14.50;65.40
22562;DHT22;11447;50.562;8.504;2023-05-28T00:46:57;14.40;65.30
22562;DHT22;11447;50.562;8.504;2023-05-28T00:49:25;14.40;65.20
22562;DHT22;11447;50.562;8.504;2023-05-28T00:51:53;14.40;65.40
22562;DHT22;11447;50.562;8.504;2023-05-28T00:54:24;14.40;65.90
22562;DHT22;11447;50.562;8.504;2023-05-28T00:56:53;14.20;65.90
22562;DHT22;11447;50.562;8.504;2023-05-28T00:59:20;14.20;65.50
22562;DHT22;11447;50.562;8.504;2023-05-28T01:01:50;14.30;65.80
22562;DHT22;11447;50.562;8.504;2023-05-28T01:04:17;14.20;66.10
22562;DHT22;11447;50.562;8.504;2023-05-28T01:06:44;14.10;66.10
22562;DHT22;11447;50.562;8.504;2023-05-28T01:09:14;14.00;66.60
22562;DHT22;11447;50.562;8.504;2023-05-28T01:11:42;13.90;66.70
22562;DHT22;11447;50.562;8.504;2023-05-28T01:14:10;14.10;66.50
22562;DHT22;11447;50.562;8.504;2023-05-28T01:16:38;13.90;67.40
22562;DHT22;11447;50.562;8.504;2023-05-28T01:19:05;13.80;67.50
22562;DHT22;11447;50.562;8.504;2023-05-28T01:21:37;13.80;67.60
22562;DHT22;11447;50.562;8.504;2023-05-28T01:24:06;13.70;68.10
22562;DHT22;11447;50.562;8.504;2023-05-28T01:26:33;13.60;67.80
22562;DHT22;11447;50.562;8.504;2023-05-28T01:29:00;13.60;68.10
22562;DHT22;11447;50.562;8.504;2023-05-28T01:31:27;13.50;68.40
22562;DHT22;11447;50.562;8.504;2023-05-28T01:33:54;13.50;68.40
22562;DHT22;11447;50.562;8.504;2023-05-28T01:36:25;13.50;68.50
22562;DHT22;11447;50.562;8.504;2023-05-28T01:38:53;13.50;68.30
22562;DHT22;11447;50.562;8.504;2023-05-28T01:41:25;13.50;67.80
22562;DHT22;11447;50.562;8.504;2023-05-28T01:43:55;13.40;68.40
22562;DHT22;11447;50.562;8.504;2023-05-28T01:46:22;13.40;68.30
22562;DHT22;11447;50.562;8.504;2023-05-28T01:48:49;13.40;68.00
22562;DHT22;11447;50.562;8.504;2023-05-28T01:51:25;13.40;67.60
22562;DHT22;11447;50.562;8.504;2023-05-28T01:53:52;13.30;67.30
22562;DHT22;11447;50.562;8.504;2023-05-28T01:56:19;13.20;67.40
22562;DHT22;11447;50.562;8.504;2023-05-28T01:58:46;13.20;67.40
22562;DHT22;11447;50.562;8.504;2023-05-28T02:01:17;13.20;67.20
22562;DHT22;11447;50.562;8.504;2023-05-28T02:03:47;13.10;67.60
22562;DHT22;11447;50.562;8.504;2023-05-28T02:06:14;13.20;67.80
22562;DHT22;11447;50.562;8.504;2023-05-28T02:08:40;13.10;68.00
22562;DHT22;11447;50.562;8.504;2023-05-28T02:11:09;13.10;68.10
22562;DHT22;11447;50.562;8.504;2023-05-28T02:13:38;12.90;68.70
22562;DHT22;11447;50.562;8.504;2023-05-28T02:16:06;12.90;69.20
22562;DHT22;11447;50.562;8.504;2023-05-28T02:18:35;12.80;68.80
22562;DHT22;11447;50.562;8.504;2023-05-28T02:21:04;12.90;68.90
22562;DHT22;11447;50.562;8.504;2023-05-28T02:23:30;13.00;69.00
22562;DHT22;11447;50.562;8.504;2023-05-28T02:25:57;13.00;69.20
22562;DHT22;11447;50.562;8.504;2023-05-28T02:28:24;12.70;69.80
22562;DHT22;11447;50.562;8.504;2023-05-28T02:30:50;12.80;69.70
22562;DHT22;11447;50.562;8.504;2023-05-28T02:33:17;12.70;69.80
22562;DHT22;11447;50.562;8.504;2023-05-28T02:35:44;12.60;70.00
22562;DHT22;11447;50.562;8.504;2023-05-28T02:38:10;12.60;70.10
22562;DHT22;11447;50.562;8.504;2023-05-28T02:40:37;12.60;70.10
22562;DHT22;11447;50.562;8.504;2023-05-28T02:43:06;12.60;70.10
22562;DHT22;11447;50.562;8.504;2023-05-28T02:45:37;12.60;70.00
22562;DHT22;11447;50.562;8.504;2023-05-28T02:48:04;12.60;70.50
22562;DHT22;11447;50.562;8.504;2023-05-28T02:50:31;12.40;70.60
22562;DHT22;11447;50.562;8.504;2023-05-28T02:52:57;12.50;70.70
22562;DHT22;11447;50.562;8.504;2023-05-28T02:55:24;12.40;71.00
22562;DHT22;11447;50.562;8.504;2023-05-28T02:57:51;12.40;71.20
22562;DHT22;11447;50.562;8.504;2023-05-28T03:00:19;12.50;71.50
22562;DHT22;11447;50.562;8.504;2023-05-28T03:02:46;12.40;71.40
22562;DHT22;11447;50.562;8.504;2023-05-28T03:05:13;12.40;71.60
22562;DHT22;11447;50.562;8.504;2023-05-28T03:07:39;12.30;72.00
22562;DHT22;11447;50.562;8.504;2023-05-28T03:10:06;12.10;71.50
22562;DHT22;11447;50.562;8.504;2023-05-28T03:12:33;12.10;71.80
22562;DHT22;11447;50.562;8.504;2023-05-28T03:15:00;12.20;71.70
22562;DHT22;11447;50.562;8.504;2023-05-28T03:17:29;12.20;71.00
22562;DHT22;11447;50.562;8.504;2023-05-28T03:19:55;12.20;71.30
22562;DHT22;11447;50.562;8.504;2023-05-28T03:22:22;12.20;71.30
22562;DHT22;11447;50.562;8.504;2023-05-28T03:24:51;12.20;71.30
22562;DHT22;11447;50.562;8.504;2023-05-28T03:27:18;12.20;71.00
22562;DHT22;11447;50.562;8.504;2023-05-28T03:29:44;12.10;71.40
22562;DHT22;11447;50.562;8.504;2023-05-28T03:32:11;12.00;71.80
22562;DHT22;11447;50.562;8.504;2023-05-28T03:34:38;12.10;71.70
22562;DHT22;11447;50.562;8.504;2023-05-28T03:37:04;11.90;71.90
22562;DHT22;11447;50.562;8.504;2023-05-28T03:39:32;11.90;71.90
22562;DHT22;11447;50.562;8.504;2023-05-28T03:41:58;11.90;72.00
22562;DHT22;11447;50.562;8.504;2023-05-28T03:44:25;11.90;72.10
22562;DHT22;11447;50.562;8.504;2023-05-28T03:46:52;11.90;72.20
22562;DHT22;11447;50.562;8.504;2023-05-28T03:49:19;11.90;72.40
22562;DHT22;11447;50.562;8.504;2023-05-28T03:51:45;11.90;72.10
22562;DHT22;11447;50.562;8.504;2023-05-28T03:54:12;11.90;72.00
22562;DHT22;11447;50.562;8.504;2023-05-28T03:56:38;11.90;72.50
22562;DHT22;11447;50.562;8.504;2023-05-28T03:59:05;11.80;72.40
22562;DHT22;11447;50.562;8.504;2023-05-28T04:01:32;11.80;72.60
22562;DHT22;11447;50.562;8.504;2023-05-28T04:04:00;11.90;72.20
22562;DHT22;11447;50.562;8.504;2023-05-28T04:06:27;11.90;72.30
22562;DHT22;11447;50.562;8.504;2023-05-28T04:08:55;11.90;72.40
22562;DHT22;11447;50.562;8.504;2023-05-28T04:11:22;11.70;72.40
22562;DHT22;11447;50.562;8.504;2023-05-28T04:13:51;11.80;72.40
22562;DHT22;11447;50.562;8.504;2023-05-28T04:16:18;11.80;72.10
22562;DHT22;11447;50.562;8.504;2023-05-28T04:18:46;11.80;72.10
22562;DHT22;11447;50.562;8.504;2023-05-28T04:21:12;11.80;72.20
22562;DHT22;11447;50.562;8.504;2023-05-28T04:23:39;11.80;72.10
22562;DHT22;11447;50.562;8.504;2023-05-28T04:26:06;11.90;71.90
22562;DHT22;11447;50.562;8.504;2023-05-28T04:28:36;11.90;71.70
22562;DHT22;11447;50.562;8.504;2023-05-28T04:31:03;11.90;71.70
22562;DHT22;11447;50.562;8.504;2023-05-28T04:33:30;12.00;71.60
22562;DHT22;11447;50.562;8.504;2023-05-28T04:35:57;11.90;71.60
22562;DHT22;11447;50.562;8.504;2023-05-28T04:38:24;11.80;71.90
22562;DHT22;11447;50.562;8.504;2023-05-28T04:40:51;11.80;72.10
22562;DHT22;11447;50.562;8.504;2023-05-28T04:43:19;11.90;71.90
22562;DHT22;11447;50.562;8.504;2023-05-28T04:45:47;11.90;72.10
22562;DHT22;11447;50.562;8.504;2023-05-28T04:48:20;12.00;71.80
22562;DHT22;11447;50.562;8.504;2023-05-28T04:50:46;12.00;71.60
22562;DHT22;11447;50.562;8.504;2023-05-28T04:53:14;12.00;71.40
22562;DHT22;11447;50.562;8.504;2023-05-28T04:55:40;12.10;71.50
22562;DHT22;11447;50.562;8.504;2023-05-28T04:58:10;12.10;71.20
22562;DHT22;11447;50.562;8.504;2023-05-28T05:00:39;12.20;70.80
22562;DHT22;11447;50.562;8.504;2023-05-28T05:03:06;12.20;70.60
22562;DHT22;11447;50.562;8.504;2023-05-28T05:05:33;12.30;71.20
22562;DHT22;11447;50.562;8.504;2023-05-28T05:07:59;12.30;70.90
22562;DHT22;11447;50.562;8.504;2023-05-28T05:10:28;12.50;70.70
22562;DHT22;11447;50.562;8.504;2023-05-28T05:12:54;12.60;69.70
22562;DHT22;11447;50.562;8.504;2023-05-28T05:15:21;12.60;70.00
22562;DHT22;11447;50.562;8.504;2023-05-28T05:17:48;12.70;69.50
22562;DHT22;11447;50.562;8.504;2023-05-28T05:20:15;12.90;69.30
22562;DHT22;11447;50.562;8.504;2023-05-28T05:22:44;12.90;69.30
22562;DHT22;11447;50.562;8.504;2023-05-28T05:25:11;13.00;68.90
22562;DHT22;11447;50.562;8.504;2023-05-28T05:27:40;13.10;68.50
22562;DHT22;11447;50.562;8.504;2023-05-28T05:30:07;13.20;68.20
22562;DHT22;11447;50.562;8.504;2023-05-28T05:32:33;13.30;68.20
22562;DHT22;11447;50.562;8.504;2023-05-28T05:35:00;13.30;67.80
22562;DHT22;11447;50.562;8.504;2023-05-28T05:37:28;13.60;67.30
22562;DHT22;11447;50.562;8.504;2023-05-28T05:39:54;13.70;66.90
22562;DHT22;11447;50.562;8.504;2023-05-28T05:42:21;13.80;66.40
22562;DHT22;11447;50.562;8.504;2023-05-28T05:44:53;14.00;65.80
22562;DHT22;11447;50.562;8.504;2023-05-28T05:47:19;14.10;65.40
22562;DHT22;11447;50.562;8.504;2023-05-28T05:49:48;14.30;65.00
22562;DHT22;11447;50.562;8.504;2023-05-28T05:52:15;14.40;64.80
22562;DHT22;11447;50.562;8.504;2023-05-28T05:54:42;14.50;64.30
22562;DHT22;11447;50.562;8.504;2023-05-28T05:57:08;14.70;63.60
22562;DHT22;11447;50.562;8.504;2023-05-28T05:59:35;14.90;62.90
22562;DHT22;11447;50.562;8.504;2023-05-28T06:02:02;15.10;62.10
22562;DHT22;11447;50.562;8.504;2023-05-28T06:04:29;17.60;57.10
22562;DHT22;11447;50.562;8.504;2023-05-28T06:06:59;22.00;46.70
22562;DHT22;11447;50.562;8.504;2023-05-28T20:17:59;21.30;47.60
22562;DHT22;11447;50.562;8.504;2023-05-28T20:20:26;21.30;47.10
22562;DHT22;11447;50.562;8.504;2023-05-28T20:22:53;21.20;46.80
22562;DHT22;11447;50.562;8.504;2023-05-28T20:25:21;21.20;46.60
22562;DHT22;11447;50.562;8.504;2023-05-28T20:27:47;21.20;46.60
22562;DHT22;11447;50.562;8.504;2023-05-28T20:30:14;21.20;46.30
22562;DHT22;11447;50.562;8.504;2023-05-28T20:32:41;21.10;46.40
22562;DHT22;11447;50.562;8.504;2023-05-28T20:35:08;21.00;46.60
22562;DHT22;11447;50.562;8.504;2023-05-28T20:37:36;21.00;46.60
22562;DHT22;11447;50.562;8.504;2023-05-28T20:40:07;20.90;47.00
22562;DHT22;11447;50.562;8.504;2023-05-28T20:42:37;20.90;47.50
22562;DHT22;11447;50.562;8.504;2023-05-28T20:45:05;20.90;47.80
22562;DHT22;11447;50.562;8.504;2023-05-28T20:47:32;20.70;47.90
22562;DHT22;11447;50.562;8.504;2023-05-28T20:49:59;20.70;47.80
22562;DHT22;11447;50.562;8.504;2023-05-28T20:52:26;20.70;47.70
22562;DHT22;11447;50.562;8.504;2023-05-28T20:54:55;20.70;47.40
22562;DHT22;11447;50.562;8.504;2023-05-28T20:57:39;20.70;46.60
22562;DHT22;11447;50.562;8.504;2023-05-28T21:00:06;20.60;46.30
22562;DHT22;11447;50.562;8.504;2023-05-28T21:02:34;20.80;46.50
22562;DHT22;11447;50.562;8.504;2023-05-28T21:05:03;20.70;46.20
22562;DHT22;11447;50.562;8.504;2023-05-28T21:07:33;20.80;46.50
22562;DHT22;11447;50.562;8.504;2023-05-28T21:10:02;20.70;47.10
22562;DHT22;11447;50.562;8.504;2023-05-28T21:12:28;20.80;47.60
22562;DHT22;11447;50.562;8.504;2023-05-28T21:14:55;20.60;47.90
22562;DHT22;11447;50.562;8.504;2023-05-28T21:17:22;20.60;46.70
22562;DHT22;11447;50.562;8.504;2023-05-28T21:19:48;20.60;47.40
22562;DHT22;11447;50.562;8.504;2023-05-28T21:22:18;20.60;47.20
22562;DHT22;11447;50.562;8.504;2023-05-28T21:24:44;20.50;48.10
22562;DHT22;11447;50.562;8.504;2023-05-28T21:27:11;20.40;47.60
22562;DHT22;11447;50.562;8.504;2023-05-28T21:29:38;20.40;47.90
22562;DHT22;11447;50.562;8.504;2023-05-28T21:32:04;20.40;47.50
22562;DHT22;11447;50.562;8.504;2023-05-28T21:34:31;20.20;47.20
22562;DHT22;11447;50.562;8.504;2023-05-28T21:36:58;20.20;47.80
22562;DHT22;11447;50.562;8.504;2023-05-28T21:39:24;20.30;47.70
22562;DHT22;11447;50.562;8.504;2023-05-28T21:41:53;20.30;47.60
22562;DHT22;11447;50.562;8.504;2023-05-28T21:44:20;20.10;47.40
22562;DHT22;11447;50.562;8.504;2023-05-28T21:46:47;20.10;47.40
22562;DHT22;11447;50.562;8.504;2023-05-28T21:49:13;20.00;47.70
22562;DHT22;11447;50.562;8.504;2023-05-28T21:51:40;20.00;47.40
22562;DHT22;11447;50.562;8.504;2023-05-28T21:54:07;20.10;48.00
22562;DHT22;11447;50.562;8.504;2023-05-28T21:56:34;20.10;47.80
22562;DHT22;11447;50.562;8.504;2023-05-28T21:59:01;20.00;47.80
22562;DHT22;11447;50.562;8.504;2023-05-28T22:01:27;19.90;48.00
22562;DHT22;11447;50.562;8.504;2023-05-28T22:03:54;19.80;48.50
22562;DHT22;11447;50.562;8.504;2023-05-28T22:06:21;19.80;48.50
22562;DHT22;11447;50.562;8.504;2023-05-28T22:08:49;19.70;48.60
22562;DHT22;11447;50.562;8.504;2023-05-28T22:11:16;19.70;48.90
22562;DHT22;11447;50.562;8.504;2023-05-28T22:13:43;19.70;48.90
22562;DHT22;11447;50.562;8.504;2023-05-28T22:16:10;19.70;49.00
22562;DHT22;11447;50.562;8.504;2023-05-28T22:18:36;19.60;49.60
22562;DHT22;11447;50.562;8.504;2023-05-28T22:21:03;19.60;50.00
22562;DHT22;11447;50.562;8.504;2023-05-28T22:23:30;19.50;50.00
22562;DHT22;11447;50.562;8.504;2023-05-28T22:25:56;19.30;50.60
22562;DHT22;11447;50.562;8.504;2023-05-28T22:28:27;19.40;50.80
22562;DHT22;11447;50.562;8.504;2023-05-28T22:30:54;19.40;51.30
22562;DHT22;11447;50.562;8.504;2023-05-28T22:33:22;19.30;51.30
22562;DHT22;11447;50.562;8.504;2023-05-28T22:35:50;19.20;51.80
22562;DHT22;11447;50.562;8.504;2023-05-28T22:38:17;19.10;51.90
22562;DHT22;11447;50.562;8.504;2023-05-28T22:40:43;19.10;51.90
22562;DHT22;11447;50.562;8.504;2023-05-28T22:43:10;19.10;52.40
22562;DHT22;11447;50.562;8.504;2023-05-28T22:45:37;19.00;52.90
22562;DHT22;11447;50.562;8.504;2023-05-28T22:48:04;18.80;53.30
22562;DHT22;11447;50.562;8.504;2023-05-28T22:50:31;18.90;53.60
22562;DHT22;11447;50.562;8.504;2023-05-28T22:52:57;18.80;54.20
22562;DHT22;11447;50.562;8.504;2023-05-28T22:55:26;18.70;54.70
22562;DHT22;11447;50.562;8.504;2023-05-28T22:57:54;18.60;55.50
22562;DHT22;11447;50.562;8.504;2023-05-28T23:00:21;18.50;55.70
22562;DHT22;11447;50.562;8.504;2023-05-28T23:02:47;18.50;55.70
22562;DHT22;11447;50.562;8.504;2023-05-28T23:05:14;18.50;56.20
22562;DHT22;11447;50.562;8.504;2023-05-28T23:07:41;18.40;56.60
22562;DHT22;11447;50.562;8.504;2023-05-28T23:10:08;18.30;57.00
22562;DHT22;11447;50.562;8.504;2023-05-28T23:12:35;18.20;56.90
22562;DHT22;11447;50.562;8.504;2023-05-28T23:15:03;18.20;56.60
22562;DHT22;11447;50.562;8.504;2023-05-28T23:17:30;18.30;56.90
22562;DHT22;11447;50.562;8.504;2023-05-28T23:19:57;18.00;57.10
22562;DHT22;11447;50.562;8.504;2023-05-28T23:22:23;18.00;57.30
22562;DHT22;11447;50.562;8.504;2023-05-28T23:24:50;18.00;57.30
22562;DHT22;11447;50.562;8.504;2023-05-28T23:27:17;17.90;57.20
22562;DHT22;11447;50.562;8.504;2023-05-28T23:29:43;17.90;57.60
22562;DHT22;11447;50.562;8.504;2023-05-28T23:32:10;17.90;57.70
22562;DHT22;11447;50.562;8.504;2023-05-28T23:34:37;17.90;57.90
22562;DHT22;11447;50.562;8.504;2023-05-28T23:37:03;17.80;58.40
22562;DHT22;11447;50.562;8.504;2023-05-28T23:39:32;17.70;58.40
22562;DHT22;11447;50.562;8.504;2023-05-28T23:41:59;17.80;58.50
22562;DHT22;11447;50.562;8.504;2023-05-28T23:44:26;17.70;58.40
22562;DHT22;11447;50.562;8.504;2023-05-28T23:46:53;17.70;58.20
22562;DHT22;11447;50.562;8.504;2023-05-28T23:49:22;17.60;58.40
22562;DHT22;11447;50.562;8.504;2023-05-28T23:51:48;17.50;58.80
22562;DHT22;11447;50.562;8.504;2023-05-28T23:54:15;17.50;58.70
22562;DHT22;11447;50.562;8.504;2023-05-28T23:56:42;17.50;58.90
22562;DHT22;11447;50.562;8.504;2023-05-28T23:59:09;17.50;58.90
